Time;durP1;ratioP1;P1;durP2;ratioP2;P2;SDS_P1;SDS_P2;PMS_P1;PMS_P2;Temp;Humidity;BMP_temperature;BMP_pressure;BME280_temperature;BME280_humidity;BME280_pressure;Samples;Min_cycle;Max_cycle;Signal;HPM_P1;HPM_P2
2023/01/11 00:00:39;;;;;;;5.55;1.25;;;8.10;99.90;;;;;;4989944;28;20046;-58
2023/01/11 00:03:07;;;;;;;4.22;0.93;;;8.00;99.90;;;;;;4982800;28;20050;-58
2023/01/11 00:05:39;;;;;;;4.85;1.15;;;8.00;99.90;;;;;;4988842;28;20068;-58
2023/01/11 00:08:08;;;;;;;5.38;1.02;;;7.90;99.90;;;;;;4990342;28;20050;-58
2023/01/11 00:10:35;;;;;;;7.00;1.35;;;7.90;99.90;;;;;;4988315;28;20057;-59
2023/01/11 00:13:03;;;;;;;3.20;0.90;;;7.90;99.90;;;;;;4991237;28;20386;-58
2023/01/11 00:15:33;;;;;;;8.98;1.98;;;7.90;99.90;;;;;;4991246;28;20062;-59
2023/01/11 00:18:01;;;;;;;4.13;0.70;;;7.80;99.90;;;;;;4993052;28;20070;-59
2023/01/11 00:20:29;;;;;;;10.43;2.05;;;7.80;99.90;;;;;;4993388;28;20509;-59
2023/01/11 00:22:57;;;;;;;3.55;1.35;;;7.80;99.90;;;;;;4994736;28;20046;-59
2023/01/11 00:25:25;;;;;;;5.65;0.57;;;7.70;99.90;;;;;;4989497;28;20049;-59
2023/01/11 00:27:53;;;;;;;3.63;0.55;;;;;;;;;;4981698;28;20050;-60
2023/01/11 00:30:21;;;;;;;9.50;1.27;;;7.70;99.90;;;;;;4990335;28;20073;-59
2023/01/11 00:32:54;;;;;;;8.82;1.23;;;7.70;99.90;;;;;;4988241;28;20050;-61
2023/01/11 00:35:22;;;;;;;3.60;1.65;;;7.70;99.90;;;;;;5013803;28;20058;-59
2023/01/11 00:37:51;;;;;;;10.70;0.90;;;7.60;99.90;;;;;;5021560;28;20130;-60
2023/01/11 00:40:19;;;;;;;6.38;0.68;;;7.60;99.90;;;;;;4990591;28;20034;-60
2023/01/11 00:48:19;;;;;;;9.50;1.00;;;7.60;99.90;;;;;;4990410;28;20506;-58
2023/01/11 00:50:46;;;;;;;8.48;0.80;;;7.60;99.90;;;;;;4991367;28;20058;-58
2023/01/11 00:53:14;;;;;;;5.72;1.58;;;7.60;99.90;;;;;;4989637;28;20042;-59
2023/01/11 00:55:42;;;;;;;5.32;0.90;;;7.50;99.90;;;;;;5019615;28;20046;-59
2023/01/11 00:58:09;;;;;;;4.60;0.68;;;7.50;99.90;;;;;;4995118;28;20050;-59
2023/01/11 01:00:37;;;;;;;7.13;0.90;;;7.50;99.90;;;;;;5000704;28;20057;-59
2023/01/11 01:03:05;;;;;;;5.55;1.05;;;7.50;99.90;;;;;;4990758;28;20041;-59
2023/01/11 01:05:32;;;;;;;10.40;1.85;;;7.60;99.90;;;;;;4988243;28;22018;-59
2023/01/11 01:08:00;;;;;;;7.00;0.73;;;7.60;99.90;;;;;;4991931;28;20054;-59
2023/01/11 01:10:28;;;;;;;4.70;0.70;;;7.70;99.90;;;;;;4991186;28;20053;-59
2023/01/11 01:15:42;;;;;;;15.30;1.25;;;;;;;;;;4989786;28;20385;-59
2023/01/11 01:18:09;;;;;;;13.35;1.17;;;7.50;99.90;;;;;;4989979;28;20387;-59
2023/01/11 01:20:37;;;;;;;12.60;1.25;;;7.50;99.90;;;;;;5001390;28;20056;-59
2023/01/11 01:23:04;;;;;;;5.25;1.33;;;7.50;99.90;;;;;;5007211;28;20049;-58
2023/01/11 01:25:34;;;;;;;12.50;2.22;;;7.50;99.90;;;;;;4991208;28;20051;-58
2023/01/11 01:28:02;;;;;;;;;;;7.40;99.90;;;;;;4988821;28;20054;-58
2023/01/11 01:30:29;;;;;;;5.22;0.95;;;7.40;99.90;;;;;;4997909;28;20281;-59
2023/01/11 01:32:57;;;;;;;9.52;1.33;;;7.40;99.90;;;;;;4990614;28;20061;-59
2023/01/11 01:35:25;;;;;;;7.57;0.82;;;7.30;99.90;;;;;;4989011;28;20501;-59
2023/01/11 01:37:52;;;;;;;17.63;1.67;;;7.30;99.90;;;;;;4989241;28;20050;-58
2023/01/11 01:40:21;;;;;;;4.50;1.05;;;7.30;99.90;;;;;;4990335;28;20042;-59
2023/01/11 01:42:53;;;;;;;10.55;1.20;;;7.20;99.90;;;;;;4995050;28;20046;-59
2023/01/11 01:45:27;;;;;;;4.30;1.02;;;7.20;99.90;;;;;;4990618;28;20038;-61
2023/01/11 01:48:00;;;;;;;11.70;1.83;;;7.20;99.90;;;;;;5004192;28;20050;-59
2023/01/11 01:50:47;;;;;;;6.25;0.90;;;7.20;99.90;;;;;;4988206;28;20061;-61
2023/01/11 01:53:28;;;;;;;13.20;1.50;;;7.20;99.90;;;;;;4989616;28;20038;-61
2023/01/11 01:56:00;;;;;;;9.98;1.17;;;7.10;99.90;;;;;;4988617;28;20065;-59
2023/01/11 01:58:34;;;;;;;4.47;0.82;;;7.10;99.90;;;;;;4989262;28;20522;-59
2023/01/11 02:01:45;;;;;;;14.73;1.20;;;7.10;99.90;;;;;;4990377;28;20068;-58
2023/01/11 02:03:50;;;;;;;10.13;0.98;;;7.10;99.90;;;;;;4989804;28;20055;-59
2023/01/11 02:06:20;;;;;;;12.35;1.13;;;7.10;99.90;;;;;;4990101;28;20064;-59
2023/01/11 02:08:55;;;;;;;3.85;1.17;;;7.10;99.90;;;;;;5021336;28;20057;-58
2023/01/11 02:11:30;;;;;;;12.48;1.63;;;7.10;99.90;;;;;;4987559;28;20054;-60
2023/01/11 02:14:02;;;;;;;10.23;1.35;;;7.10;99.90;;;;;;4995420;28;20061;-59
2023/01/11 02:16:29;;;;;;;8.70;1.13;;;7.00;99.90;;;;;;4988612;28;20050;-59
2023/01/11 02:18:58;;;;;;;11.27;1.25;;;7.00;99.90;;;;;;5019559;28;20050;-61
2023/01/11 02:21:52;;;;;;;10.63;0.90;;;7.00;99.90;;;;;;4988353;28;20402;-60
2023/01/11 02:24:41;;;;;;;7.93;1.70;;;7.00;99.90;;;;;;4991236;28;20058;-61
2023/01/11 02:27:22;;;;;;;10.40;1.47;;;6.90;99.90;;;;;;4981933;28;20047;-60
2023/01/11 02:30:02;;;;;;;7.25;0.95;;;7.00;99.90;;;;;;4983827;28;20042;-60
2023/01/11 02:32:46;;;;;;;17.17;1.55;;;6.90;99.90;;;;;;4988243;28;20046;-61
2023/01/11 02:35:35;;;;;;;8.02;1.33;;;6.80;99.90;;;;;;4989221;28;20050;-60
2023/01/11 02:38:21;;;;;;;9.48;1.08;;;6.80;99.90;;;;;;4989712;28;20054;-59
2023/01/11 02:41:20;;;;;;;11.43;2.10;;;6.80;99.90;;;;;;4989731;28;20402;-59
2023/01/11 02:47:03;;;;;;;5.75;1.42;;;6.60;99.90;;;;;;4987920;28;20541;-60
2023/01/11 02:49:34;;;;;;;13.60;1.30;;;6.70;99.90;;;;;;4991145;28;20061;-60
2023/01/11 02:52:08;;;;;;;17.83;1.42;;;6.70;99.90;;;;;;4990694;28;20410;-60
2023/01/11 02:54:39;;;;;;;10.07;1.30;;;6.70;99.90;;;;;;4988057;28;20042;-60
2023/01/11 02:57:09;;;;;;;9.63;1.50;;;6.70;99.90;;;;;;4984168;28;20057;-60
2023/01/11 02:59:39;;;;;;;17.33;3.45;;;6.80;99.90;;;;;;5005839;28;20050;-59
2023/01/11 03:02:07;;;;;;;12.13;1.67;;;6.80;99.90;;;;;;4989078;28;20038;-60
2023/01/11 03:04:36;;;;;;;12.70;1.55;;;6.70;99.90;;;;;;4990041;28;20093;-59
2023/01/11 03:07:13;;;;;;;12.82;1.67;;;6.70;99.90;;;;;;4989957;28;20043;-58
2023/01/11 03:09:54;;;;;;;14.40;1.77;;;6.70;99.90;;;;;;4991222;28;20161;-58
2023/01/11 03:15:26;;;;;;;8.52;1.90;;;6.60;99.90;;;;;;4984583;28;20062;-59
2023/01/11 03:18:32;;;;;;;23.60;1.88;;;6.50;99.90;;;;;;4992263;28;20049;-59
2023/01/11 03:21:36;;;;;;;15.88;2.15;;;6.60;99.90;;;;;;4993353;28;20069;-59
2023/01/11 03:24:30;;;;;;;17.02;1.92;;;6.60;99.90;;;;;;4992325;28;20054;-59
2023/01/11 03:27:09;;;;;;;14.80;2.60;;;6.60;99.90;;;;;;4991670;28;20042;-60
2023/01/11 03:30:05;;;;;;;12.27;2.30;;;6.60;99.90;;;;;;4992947;28;20049;-60
2023/01/11 03:32:47;;;;;;;17.45;2.17;;;6.70;99.90;;;;;;4992724;28;20054;-60
2023/01/11 03:35:29;;;;;;;18.33;2.70;;;6.70;99.90;;;;;;4984788;28;20049;-60
2023/01/11 03:38:16;;;;;;;18.65;2.90;;;6.80;99.90;;;;;;4978198;28;20034;-61
2023/01/11 03:41:03;;;;;;;19.27;2.45;;;6.80;99.90;;;;;;4987500;28;20046;-60
2023/01/11 03:43:35;;;;;;;14.95;3.38;;;6.80;99.90;;;;;;5011069;28;20046;-60
2023/01/11 03:46:17;;;;;;;14.50;1.75;;;6.80;99.90;;;;;;4995836;28;20053;-58
2023/01/11 03:48:51;;;;;;;15.32;2.35;;;6.80;99.90;;;;;;4988857;28;20410;-59
2023/01/11 03:51:26;;;;;;;23.90;2.90;;;6.80;99.90;;;;;;4989264;28;20046;-59
2023/01/11 03:53:59;;;;;;;10.90;1.58;;;6.80;99.90;;;;;;4994043;28;20046;-59
2023/01/11 03:56:35;;;;;;;14.80;2.40;;;6.70;99.90;;;;;;4990980;28;20050;-59
2023/01/11 03:59:03;;;;;;;20.38;2.05;;;6.70;99.90;;;;;;4994203;28;20047;-59
2023/01/11 04:01:31;;;;;;;12.32;1.73;;;;;;;;;;4992737;28;20046;-59
2023/01/11 04:03:59;;;;;;;22.08;2.33;;;6.70;99.90;;;;;;4985273;28;20070;-60
2023/01/11 04:06:26;;;;;;;11.75;1.98;;;6.60;99.90;;;;;;4991871;28;20050;-59
2023/01/11 04:08:54;;;;;;;14.35;2.90;;;6.60;99.90;;;;;;4974668;28;20058;-60
2023/01/11 04:11:21;;;;;;;14.25;1.77;;;6.60;99.90;;;;;;4985294;28;20131;-59
2023/01/11 04:13:49;;;;;;;15.18;1.92;;;6.60;99.90;;;;;;4997875;28;20046;-59
2023/01/11 04:16:16;;;;;;;20.73;2.70;;;6.60;99.90;;;;;;4988985;28;20046;-60
2023/01/11 04:18:44;;;;;;;16.77;1.65;;;6.60;99.90;;;;;;4992307;28;20038;-59
2023/01/11 04:21:12;;;;;;;15.95;1.95;;;6.60;99.90;;;;;;4992742;28;20057;-59
2023/01/11 04:23:39;;;;;;;14.68;1.85;;;6.60;99.90;;;;;;4993480;28;20061;-61
2023/01/11 04:26:07;;;;;;;14.50;2.00;;;6.60;99.90;;;;;;4990320;28;20061;-61
2023/01/11 04:28:34;;;;;;;13.35;1.42;;;6.50;99.90;;;;;;4993150;28;20049;-60
2023/01/11 04:31:02;;;;;;;21.90;1.95;;;6.50;99.90;;;;;;4991666;28;20046;-58
2023/01/11 04:33:30;;;;;;;16.05;1.38;;;6.50;99.90;;;;;;4992352;28;20502;-59
2023/01/11 04:35:57;;;;;;;12.88;3.15;;;6.50;99.90;;;;;;4990915;28;20042;-59
2023/01/11 04:38:26;;;;;;;13.65;2.90;;;6.50;99.90;;;;;;4989043;28;20046;-59
2023/01/11 04:42:17;;;;;;;14.93;2.03;;;6.50;99.90;;;;;;4988356;28;20057;-59
2023/01/11 04:43:41;;;;;;;12.40;1.52;;;6.50;99.90;;;;;;4993623;28;20394;-59
2023/01/11 04:46:09;;;;;;;19.10;1.60;;;6.50;99.90;;;;;;4992528;28;20039;-58
2023/01/11 04:48:39;;;;;;;16.70;1.52;;;6.40;99.90;;;;;;4991532;28;20038;-61
2023/01/11 04:51:08;;;;;;;18.35;1.77;;;6.50;99.90;;;;;;4992874;28;20046;-58
2023/01/11 04:53:35;;;;;;;11.73;1.90;;;6.40;99.90;;;;;;4992652;28;20043;-59
2023/01/11 04:56:04;;;;;;;16.73;1.58;;;6.40;99.90;;;;;;4991228;28;20046;-59
2023/01/11 04:58:34;;;;;;;11.02;1.95;;;6.40;99.90;;;;;;4992127;28;20053;-63
2023/01/11 05:01:09;;;;;;;16.15;2.00;;;6.40;99.90;;;;;;4989159;28;20046;-60
2023/01/11 05:03:37;;;;;;;13.80;1.73;;;6.40;99.90;;;;;;4991593;28;20046;-60
2023/01/11 05:06:05;;;;;;;12.43;1.60;;;6.40;99.90;;;;;;4990570;28;20078;-59
2023/01/11 05:08:33;;;;;;;11.48;1.50;;;6.40;99.90;;;;;;4988137;28;20050;-60
2023/01/11 05:11:03;;;;;;;18.70;2.20;;;6.40;99.90;;;;;;4988748;28;20050;-60
2023/01/11 05:13:43;;;;;;;12.40;1.70;;;6.30;99.90;;;;;;5008385;28;20042;-60
2023/01/11 05:16:13;;;;;;;12.55;1.75;;;6.30;99.90;;;;;;4992373;28;20043;-60
2023/01/11 05:18:43;;;;;;;10.82;1.65;;;6.30;99.90;;;;;;4992492;28;20053;-59
2023/01/11 05:21:12;;;;;;;23.58;1.77;;;6.20;99.90;;;;;;4991601;28;20054;-59
2023/01/11 05:23:40;;;;;;;21.98;2.15;;;6.20;99.90;;;;;;4991358;28;20042;-60
2023/01/11 05:26:21;;;;;;;17.67;2.40;;;6.20;99.90;;;;;;4991987;28;20093;-60
2023/01/11 05:28:50;;;;;;;13.07;1.40;;;6.20;99.90;;;;;;4991719;28;20038;-60
2023/01/11 05:31:18;;;;;;;12.88;2.72;;;6.20;99.90;;;;;;4982853;28;20051;-60
2023/01/11 05:33:46;;;;;;;16.88;1.60;;;6.20;99.90;;;;;;4988867;28;20521;-60
2023/01/11 05:36:17;;;;;;;15.80;2.53;;;6.20;99.90;;;;;;4992085;28;20039;-59
2023/01/11 05:38:45;;;;;;;9.00;1.92;;;6.20;99.90;;;;;;4989699;28;20042;-59
2023/01/11 05:41:13;;;;;;;13.98;2.03;;;6.10;99.90;;;;;;4990866;28;20054;-59
2023/01/11 05:46:32;;;;;;;9.52;1.42;;;6.10;99.90;;;;;;4990003;28;20069;-60
2023/01/11 05:49:00;;;;;;;16.13;1.85;;;6.10;99.90;;;;;;4982901;28;20069;-60
2023/01/11 05:51:29;;;;;;;15.27;2.15;;;6.10;99.90;;;;;;4987406;28;20042;-60
2023/01/11 05:54:01;;;;;;;16.65;1.75;;;6.10;99.90;;;;;;5017836;28;20062;-60
2023/01/11 05:56:29;;;;;;;11.52;1.95;;;6.10;99.90;;;;;;4987446;28;20046;-60
2023/01/11 05:58:57;;;;;;;16.98;2.22;;;6.10;99.90;;;;;;5003040;28;20069;-59
2023/01/11 06:01:25;;;;;;;17.10;1.75;;;6.10;99.90;;;;;;4985101;28;20135;-60
2023/01/11 06:03:52;;;;;;;13.13;1.42;;;6.10;99.90;;;;;;4982935;28;20050;-59
2023/01/11 06:06:21;;;;;;;9.85;1.60;;;6.10;99.90;;;;;;4983228;28;20043;-60
2023/01/11 06:08:49;;;;;;;10.70;1.40;;;6.00;99.90;;;;;;4985466;28;20065;-60
2023/01/11 06:11:17;;;;;;;12.80;1.63;;;6.00;99.90;;;;;;4979199;28;20406;-60
2023/01/11 06:13:45;;;;;;;14.32;1.88;;;6.00;99.90;;;;;;5024216;28;20494;-60
2023/01/11 06:16:18;;;;;;;9.23;2.13;;;5.90;99.90;;;;;;4987386;28;20042;-60
2023/01/11 06:18:48;;;;;;;12.75;1.40;;;5.90;99.90;;;;;;4989119;28;20046;-60
2023/01/11 06:21:16;;;;;;;;;;;5.90;99.90;;;;;;4990413;28;20045;-59
2023/01/11 06:23:46;;;;;;;12.07;1.67;;;5.90;99.90;;;;;;5006632;28;19922;-60
2023/01/11 06:26:15;;;;;;;7.90;3.17;;;5.90;99.90;;;;;;4988839;28;20391;-60
2023/01/11 06:28:43;;;;;;;13.77;1.87;;;5.90;99.90;;;;;;5003430;28;20058;-59
2023/01/11 06:31:11;;;;;;;14.68;1.52;;;5.90;99.90;;;;;;4987586;28;20418;-59
2023/01/11 06:33:39;;;;;;;10.73;1.95;;;5.90;99.90;;;;;;4986154;28;20061;-59
2023/01/11 06:36:09;;;;;;;11.85;1.65;;;5.90;99.90;;;;;;4986217;28;20474;-60
2023/01/11 06:38:38;;;;;;;10.00;1.70;;;;;;;;;;4987721;28;20034;-59
2023/01/11 06:41:09;;;;;;;17.77;2.17;;;5.90;99.90;;;;;;4989046;28;20050;-59
2023/01/11 06:43:40;;;;;;;12.77;1.55;;;5.90;99.90;;;;;;5005392;28;20054;-59
2023/01/11 06:46:13;;;;;;;10.25;1.98;;;5.90;99.90;;;;;;4990462;28;20065;-59
2023/01/11 06:48:42;;;;;;;11.45;1.30;;;6.10;99.90;;;;;;4989702;28;20486;-59
2023/01/11 06:51:10;;;;;;;13.45;2.65;;;5.90;99.90;;;;;;4989595;28;20042;-60
2023/01/11 06:53:39;;;;;;;13.83;2.23;;;5.90;99.90;;;;;;5023116;28;20058;-60
2023/01/11 06:56:11;;;;;;;14.38;2.00;;;5.90;99.90;;;;;;4991509;28;20621;-60
2023/01/11 06:58:38;;;;;;;9.15;2.00;;;5.90;99.90;;;;;;4990984;28;20050;-61
2023/01/11 07:01:06;;;;;;;10.75;1.50;;;5.90;99.90;;;;;;5003724;28;20045;-61
2023/01/11 07:03:34;;;;;;;18.08;2.58;;;5.90;99.90;;;;;;4984644;28;20053;-61
2023/01/11 07:06:03;;;;;;;10.80;1.90;;;5.90;99.90;;;;;;4986807;28;20414;-60
2023/01/11 07:08:30;;;;;;;9.15;1.80;;;5.90;99.90;;;;;;4988703;28;20110;-60
2023/01/11 07:10:58;;;;;;;19.52;1.75;;;5.90;99.90;;;;;;4989751;28;20046;-60
2023/01/11 07:13:26;;;;;;;8.15;2.80;;;5.90;99.90;;;;;;5025926;28;20050;-60
2023/01/11 07:15:56;;;;;;;6.85;1.08;;;5.90;99.90;;;;;;4990821;28;20521;-59
2023/01/11 07:18:23;;;;;;;;;;;5.90;99.90;;;;;;4993156;28;20061;-59
2023/01/11 07:20:51;;;;;;;12.85;2.33;;;5.80;99.90;;;;;;4991673;28;19979;-60
2023/01/11 07:23:18;;;;;;;14.32;1.70;;;5.90;99.90;;;;;;4991580;28;20395;-60
2023/01/11 07:25:48;;;;;;;14.23;1.33;;;5.90;99.90;;;;;;4992978;28;20038;-61
2023/01/11 07:28:16;;;;;;;13.05;1.55;;;5.90;99.90;;;;;;4982972;28;20168;-60
2023/01/11 07:30:43;;;;;;;11.02;1.45;;;5.90;99.90;;;;;;4989302;28;20505;-60
2023/01/11 07:33:25;;;;;;;16.67;1.55;;;5.90;99.90;;;;;;4974197;28;20849;-61
2023/01/11 07:35:53;;;;;;;18.55;1.83;;;6.00;99.90;;;;;;4975590;28;20054;-60
2023/01/11 07:38:21;;;;;;;22.65;2.28;;;6.00;99.90;;;;;;4972686;28;20053;-60
2023/01/11 07:40:49;;;;;;;17.10;2.55;;;6.00;99.90;;;;;;4974735;28;20043;-61
2023/01/11 07:43:18;;;;;;;14.73;2.08;;;6.10;99.90;;;;;;4980418;28;20038;-61
2023/01/11 07:45:48;;;;;;;11.93;1.98;;;6.10;99.90;;;;;;4992241;28;20050;-60
2023/01/11 07:48:23;;;;;;;23.60;2.22;;;6.10;99.90;;;;;;4992621;28;20077;-60
2023/01/11 07:50:51;;;;;;;18.23;2.47;;;6.10;99.90;;;;;;4992160;28;20402;-59
2023/01/11 07:53:19;;;;;;;15.57;1.88;;;6.10;99.90;;;;;;4992274;28;20046;-59
2023/01/11 07:55:47;;;;;;;21.63;2.13;;;6.10;99.90;;;;;;4992376;28;20049;-58
2023/01/11 07:58:15;;;;;;;14.27;1.60;;;6.00;99.90;;;;;;4992397;28;20415;-59
2023/01/11 08:00:44;;;;;;;21.02;2.97;;;6.00;99.90;;;;;;4992060;28;20398;-59
2023/01/11 08:03:12;;;;;;;;;;;6.00;99.90;;;;;;4987984;28;20046;-59
2023/01/11 08:05:40;;;;;;;19.48;2.20;;;6.00;99.90;;;;;;4988791;28;19922;-59
2023/01/11 08:08:07;;;;;;;13.80;1.67;;;6.00;99.90;;;;;;4990888;28;20054;-60
2023/01/11 08:10:35;;;;;;;17.77;2.47;;;6.00;99.90;;;;;;4991398;28;20061;-63
2023/01/11 08:15:49;;;;;;;20.02;2.42;;;5.90;99.90;;;;;;4997857;28;20046;-60
2023/01/11 08:18:18;;;;;;;17.25;1.35;;;5.90;99.90;;;;;;4999089;28;20093;-60
2023/01/11 08:20:46;;;;;;;12.52;2.00;;;5.80;99.90;;;;;;4999678;28;20058;-60
2023/01/11 08:23:14;;;;;;;12.75;1.85;;;5.80;99.90;;;;;;4990982;28;20050;-61
2023/01/11 08:25:43;;;;;;;17.15;2.65;;;5.80;99.90;;;;;;4991213;28;20042;-61
2023/01/11 08:28:11;;;;;;;15.00;1.85;;;5.80;99.90;;;;;;4990624;28;20050;-60
2023/01/11 08:30:39;;;;;;;18.35;2.80;;;5.80;99.90;;;;;;4986599;28;20047;-60
2023/01/11 08:33:06;;;;;;;21.65;2.90;;;5.90;99.90;;;;;;4987226;28;20042;-60
2023/01/11 08:35:38;;;;;;;18.33;2.70;;;5.90;99.90;;;;;;4988638;28;20045;-60
2023/01/11 08:38:06;;;;;;;18.85;2.70;;;5.90;99.90;;;;;;4987300;28;20520;-61
2023/01/11 08:40:34;;;;;;;17.63;1.98;;;5.90;99.90;;;;;;4991570;28;20062;-61
2023/01/11 08:43:02;;;;;;;14.60;2.35;;;5.90;99.90;;;;;;4989958;28;20042;-63
2023/01/11 08:45:30;;;;;;;18.83;1.90;;;5.90;99.90;;;;;;4990614;28;20038;-61
2023/01/11 08:47:58;;;;;;;19.63;2.30;;;5.90;99.90;;;;;;4988444;28;20069;-59
2023/01/11 08:50:26;;;;;;;16.80;2.83;;;5.90;99.90;;;;;;4989864;28;20054;-60
2023/01/11 08:52:54;;;;;;;17.73;3.05;;;5.80;99.90;;;;;;4991110;28;20043;-58
2023/01/11 08:55:21;;;;;;;20.55;2.22;;;5.90;99.90;;;;;;4991285;28;20066;-59
2023/01/11 08:57:49;;;;;;;17.33;3.42;;;5.90;99.90;;;;;;4998348;28;20046;-59
2023/01/11 09:00:17;;;;;;;16.17;3.20;;;5.90;99.90;;;;;;4990082;28;20043;-59
2023/01/11 09:02:45;;;;;;;21.40;2.42;;;5.90;99.90;;;;;;4990806;28;20050;-59
2023/01/11 09:05:13;;;;;;;19.67;1.70;;;6.00;99.90;;;;;;5005756;28;20054;-60
2023/01/11 09:07:44;;;;;;;16.60;2.10;;;6.00;99.90;;;;;;4995882;28;20050;-60
2023/01/11 09:10:12;;;;;;;26.08;2.53;;;6.10;99.90;;;;;;4991768;28;20046;-60
2023/01/11 09:12:40;;;;;;;17.35;2.35;;;6.20;99.90;;;;;;4990900;28;20517;-61
2023/01/11 09:15:08;;;;;;;19.38;1.95;;;6.30;99.90;;;;;;4990850;28;20050;-60
2023/01/11 09:17:36;;;;;;;12.48;1.90;;;6.40;99.90;;;;;;4991349;28;20062;-60
2023/01/11 09:20:04;;;;;;;18.15;2.72;;;6.40;99.90;;;;;;4988999;28;20046;-59
2023/01/11 09:22:32;;;;;;;21.23;2.50;;;6.50;99.90;;;;;;4990108;28;20054;-60
2023/01/11 09:25:00;;;;;;;18.63;2.47;;;6.50;99.90;;;;;;4991113;28;20069;-60
2023/01/11 09:27:28;;;;;;;9.90;1.23;;;9.30;99.90;;;;;;4991787;28;20497;-59
2023/01/11 09:29:55;;;;;;;18.80;2.33;;;6.70;99.90;;;;;;4990743;28;20722;-60
2023/01/11 09:32:23;;;;;;;15.05;1.88;;;6.70;99.90;;;;;;4976222;28;20057;-60
2023/01/11 09:34:56;;;;;;;16.05;2.40;;;6.70;99.90;;;;;;4989245;28;20050;-58
2023/01/11 09:37:23;;;;;;;12.27;2.22;;;6.80;99.90;;;;;;4989831;28;20047;-60
2023/01/11 09:39:51;;;;;;;18.45;2.20;;;6.80;99.90;;;;;;4989625;28;20050;-59
2023/01/11 09:42:30;;;;;;;19.38;2.95;;;6.70;99.90;;;;;;4992024;28;20047;-59
2023/01/11 09:45:22;;;;;;;13.07;2.42;;;6.80;99.90;;;;;;4990758;28;20050;-59
2023/01/11 09:48:18;;;;;;;16.20;2.63;;;6.70;99.90;;;;;;4993733;28;20054;-59
2023/01/11 09:50:47;;;;;;;14.50;2.53;;;6.70;99.90;;;;;;5007582;28;20050;-60
2023/01/11 09:53:26;;;;;;;21.25;2.78;;;6.70;99.90;;;;;;4990235;28;20367;-59
2023/01/11 09:55:58;;;;;;;14.95;2.95;;;6.70;99.90;;;;;;4989266;28;20430;-61
2023/01/11 09:58:50;;;;;;;17.42;1.73;;;6.70;99.90;;;;;;4993813;28;20050;-60
2023/01/11 10:01:48;;;;;;;17.88;1.95;;;6.80;99.90;;;;;;4989067;28;20053;-59
2023/01/11 10:04:42;;;;;;;14.00;1.75;;;6.90;99.90;;;;;;4987352;28;20038;-59
2023/01/11 10:07:37;;;;;;;16.85;2.30;;;6.90;99.90;;;;;;4973502;28;20077;-60
2023/01/11 10:10:24;;;;;;;17.08;2.22;;;7.00;99.90;;;;;;4975799;28;20046;-59
2023/01/11 10:13:29;;;;;;;22.00;2.45;;;7.00;99.90;;;;;;4976907;28;20046;-59
2023/01/11 10:16:34;;;;;;;15.43;2.83;;;7.10;99.90;;;;;;4985723;28;20065;-59
2023/01/11 10:19:46;;;;;;;17.33;3.13;;;7.00;99.90;;;;;;4987740;28;20046;-62
2023/01/11 10:22:30;;;;;;;9.77;1.85;;;7.00;99.90;;;;;;4984957;28;20042;-60
2023/01/11 10:25:06;;;;;;;15.05;3.95;;;7.00;99.90;;;;;;4979222;28;20411;-59
2023/01/11 10:27:39;;;;;;;9.80;1.83;;;7.00;99.90;;;;;;4990794;28;20057;-59
2023/01/11 10:30:36;;;;;;;19.02;2.15;;;7.00;99.90;;;;;;4990561;28;20054;-59
2023/01/11 10:36:04;;;;;;;15.88;2.72;;;7.10;99.90;;;;;;4989328;28;20047;-61
2023/01/11 10:38:53;;;;;;;16.65;2.30;;;7.20;99.90;;;;;;4981204;28;20061;-60
2023/01/11 10:41:53;;;;;;;18.70;2.42;;;7.30;99.90;;;;;;4992658;28;20529;-60
2023/01/11 10:44:31;;;;;;;11.82;1.73;;;7.30;99.90;;;;;;4986200;28;20387;-60
2023/01/11 10:47:02;;;;;;;17.60;2.20;;;7.40;99.90;;;;;;4992416;28;20122;-60
2023/01/11 10:49:51;;;;;;;14.70;1.50;;;7.40;99.90;;;;;;5003733;28;20521;-60
2023/01/11 10:52:46;;;;;;;19.40;2.03;;;7.50;99.90;;;;;;4981585;28;20038;-59
2023/01/11 10:55:25;;;;;;;13.07;1.67;;;7.50;99.90;;;;;;4970806;28;20800;-59
2023/01/11 10:58:17;;;;;;;18.58;2.00;;;7.60;99.90;;;;;;4997232;28;20050;-58
2023/01/11 11:01:09;;;;;;;20.42;2.47;;;7.60;99.90;;;;;;5003238;28;20054;-59
2023/01/11 11:03:44;;;;;;;18.85;2.22;;;7.70;99.90;;;;;;4992347;28;20054;-59
2023/01/11 11:06:34;;;;;;;14.10;2.00;;;7.80;99.90;;;;;;4991233;28;20050;-58
2023/01/11 11:09:13;;;;;;;14.77;2.05;;;7.80;99.90;;;;;;4988712;28;20074;-60
2023/01/11 11:11:51;;;;;;;12.07;1.05;;;7.90;99.90;;;;;;4991740;28;20051;-58
2023/01/11 11:14:40;;;;;;;5.45;1.08;;;8.00;99.90;;;;;;4983990;28;20066;-58
2023/01/11 11:17:31;;;;;;;12.43;1.00;;;8.00;99.90;;;;;;4993368;28;20537;-60
2023/01/11 11:19:59;;;;;;;10.02;1.10;;;8.10;99.90;;;;;;4987181;28;20046;-59
2023/01/11 11:22:26;;;;;;;9.07;1.27;;;8.20;99.90;;;;;;4992367;28;20050;-59
2023/01/11 11:25:00;;;;;;;7.85;1.30;;;8.30;99.90;;;;;;4992330;28;20498;-59
2023/01/11 11:27:35;;;;;;;14.63;1.63;;;8.50;99.90;;;;;;4994979;28;20053;-59
2023/01/11 11:30:03;;;;;;;8.60;1.67;;;8.50;99.90;;;;;;4992523;28;20046;-59
2023/01/11 11:32:37;;;;;;;6.00;1.20;;;8.50;99.90;;;;;;4992652;28;20047;-60
2023/01/11 11:35:06;;;;;;;4.65;0.93;;;8.50;99.90;;;;;;4990127;28;20470;-59
2023/01/11 11:37:40;;;;;;;29.95;2.42;;;8.50;99.90;;;;;;4992428;28;20047;-59
2023/01/11 11:40:34;;;;;;;13.75;1.48;;;8.50;99.90;;;;;;4992540;28;20066;-59
2023/01/11 11:43:11;;;;;;;10.35;1.83;;;8.50;99.90;;;;;;4988755;28;20042;-61
2023/01/11 11:45:53;;;;;;;14.07;1.52;;;8.40;99.90;;;;;;4988287;28;20038;-61
2023/01/11 11:48:23;;;;;;;6.95;0.93;;;8.40;99.90;;;;;;4992267;28;20042;-60
2023/01/11 11:50:53;;;;;;;30.13;2.20;;;8.40;99.90;;;;;;4993041;28;20042;-61
2023/01/11 11:53:50;;;;;;;8.73;1.52;;;8.40;99.90;;;;;;4992438;28;20049;-61
2023/01/11 11:56:25;;;;;;;10.52;1.35;;;8.40;99.90;;;;;;5023997;28;20062;-58
2023/01/11 11:58:55;;;;;;;10.50;1.65;;;8.40;99.90;;;;;;4994403;28;20054;-59
2023/01/11 12:01:28;;;;;;;12.70;1.05;;;8.40;99.90;;;;;;4991316;28;20050;-61
2023/01/11 12:04:09;;;;;;;9.52;1.33;;;8.40;99.90;;;;;;4991854;28;20042;-60
2023/01/11 12:06:39;;;;;;;5.93;1.30;;;8.40;99.90;;;;;;4999626;28;20062;-59
2023/01/11 12:09:29;;;;;;;12.10;1.35;;;8.40;99.90;;;;;;4985265;28;20042;-59
2023/01/11 12:11:58;;;;;;;12.20;2.55;;;8.40;99.90;;;;;;4988862;28;20062;-63
2023/01/11 12:14:34;;;;;;;7.45;1.35;;;8.40;99.90;;;;;;4989053;28;20390;-60
2023/01/11 12:17:24;;;;;;;10.68;1.63;;;8.40;99.90;;;;;;4989035;28;20151;-59
2023/01/11 12:19:52;;;;;;;9.45;0.98;;;8.40;99.90;;;;;;4982774;28;20035;-58
2023/01/11 12:22:26;;;;;;;7.45;1.38;;;8.40;99.90;;;;;;4987801;28;20049;-58
2023/01/11 12:25:03;;;;;;;9.40;0.93;;;8.40;99.90;;;;;;4986836;28;20053;-59
2023/01/11 12:28:19;;;;;;;5.82;0.70;;;8.40;99.90;;;;;;4992771;28;20375;-59
2023/01/11 12:31:10;;;;;;;7.57;1.08;;;8.40;99.90;;;;;;4989464;28;20050;-60
2023/01/11 12:33:49;;;;;;;9.77;1.10;;;8.40;99.90;;;;;;4987662;28;20061;-60
2023/01/11 12:36:55;;;;;;;11.45;1.10;;;8.40;99.90;;;;;;4986249;28;20070;-58
2023/01/11 12:39:37;;;;;;;13.35;1.55;;;8.40;99.90;;;;;;4991431;28;20050;-58
2023/01/11 12:42:10;;;;;;;6.25;1.52;;;8.40;99.90;;;;;;4989256;28;20046;-58
2023/01/11 12:44:54;;;;;;;9.25;1.10;;;8.40;99.90;;;;;;4988767;28;20402;-57
2023/01/11 12:47:34;;;;;;;16.98;1.77;;;8.30;99.90;;;;;;4987494;28;20084;-58
2023/01/11 12:50:23;;;;;;;13.73;1.67;;;8.30;99.90;;;;;;4985659;28;20054;-58
2023/01/11 12:53:03;;;;;;;10.45;2.20;;;8.30;99.90;;;;;;5002264;28;20054;-59
2023/01/11 12:55:45;;;;;;;12.20;1.30;;;8.30;99.90;;;;;;4989895;28;20050;-58
2023/01/11 12:58:56;;;;;;;13.15;1.48;;;8.20;99.90;;;;;;4988925;28;20042;-58
2023/01/11 13:01:44;;;;;;;17.65;1.75;;;8.20;99.90;;;;;;4996717;28;20054;-60
2023/01/11 13:04:21;;;;;;;10.45;1.92;;;8.10;99.90;;;;;;4984634;28;20611;-58
2023/01/11 13:07:06;;;;;;;12.57;2.00;;;7.90;99.90;;;;;;4985282;28;20505;-58
2023/01/11 13:10:01;;;;;;;11.02;1.42;;;7.90;99.90;;;;;;4991959;28;20057;-58
2023/01/11 13:12:33;;;;;;;10.63;1.42;;;7.70;99.90;;;;;;5004466;28;20667;-59
2023/01/11 13:15:10;;;;;;;8.32;1.13;;;7.60;99.90;;;;;;4986132;28;20066;-59
2023/01/11 13:17:50;;;;;;;9.20;1.35;;;7.50;99.90;;;;;;4988260;28;20065;-59
2023/01/11 13:20:32;;;;;;;7.07;0.98;;;7.30;99.90;;;;;;4988914;28;20054;-59
2023/01/11 13:23:28;;;;;;;9.80;1.40;;;7.20;99.90;;;;;;4990516;28;20053;-59
2023/01/11 13:25:57;;;;;;;9.23;1.05;;;7.30;99.90;;;;;;4989767;28;20038;-58
2023/01/11 13:28:42;;;;;;;6.37;1.10;;;7.20;99.90;;;;;;4990062;28;20067;-60
2023/01/11 13:31:12;;;;;;;8.43;1.30;;;7.20;99.90;;;;;;4990313;28;20042;-58
2023/01/11 13:33:46;;;;;;;6.35;1.00;;;7.30;99.90;;;;;;4990715;28;20391;-59
2023/01/11 13:36:22;;;;;;;5.15;0.63;;;7.30;99.90;;;;;;4989550;28;20046;-58
2023/01/11 13:39:00;;;;;;;4.03;0.52;;;7.40;99.90;;;;;;4989913;28;20045;-59
2023/01/11 13:41:43;;;;;;;8.35;0.88;;;7.50;99.90;;;;;;4988788;28;20066;-58
2023/01/11 13:44:20;;;;;;;6.35;0.40;;;7.50;99.90;;;;;;4990610;28;20050;-59
2023/01/11 13:47:01;;;;;;;4.03;0.60;;;7.40;99.90;;;;;;4989746;28;20054;-59
2023/01/11 13:50:03;;;;;;;2.83;0.65;;;7.40;99.90;;;;;;4995183;28;20392;-59
2023/01/11 13:52:54;;;;;;;4.65;1.00;;;7.60;99.90;;;;;;4980480;28;20043;-59